sensor_id;sensor_type;location;lat;lon;timestamp;P1;durP1;ratioP1;P2;durP2;ratioP2
49948;SDS011;35840;45.982;8.890;2023-08-17T00:02:12;5.88;;;4.43;;
49948;SDS011;35840;45.982;8.890;2023-08-17T00:04:39;6.25;;;4.35;;
49948;SDS011;35840;45.982;8.890;2023-08-17T00:07:06;4.47;;;3.97;;
49948;SDS011;35840;45.982;8.890;2023-08-17T00:09:33;4.57;;;3.90;;
49948;SDS011;35840;45.982;8.890;2023-08-17T00:12:01;6.53;;;4.45;;
49948;SDS011;35840;45.982;8.890;2023-08-17T00:14:28;5.45;;;4.95;;
49948;SDS011;35840;45.982;8.890;2023-08-17T00:16:55;4.47;;;4.07;;
49948;SDS011;35840;45.982;8.890;2023-08-17T00:19:22;6.63;;;3.90;;
49948;SDS011;35840;45.982;8.890;2023-08-17T00:21:49;3.92;;;3.58;;
49948;SDS011;35840;45.982;8.890;2023-08-17T00:24:15;4.35;;;3.95;;
49948;SDS011;35840;45.982;8.890;2023-08-17T00:26:42;4.38;;;4.05;;
49948;SDS011;35840;45.982;8.890;2023-08-17T00:29:09;4.60;;;4.20;;
49948;SDS011;35840;45.982;8.890;2023-08-17T00:31:36;6.22;;;4.53;;
49948;SDS011;35840;45.982;8.890;2023-08-17T00:34:03;7.70;;;4.00;;
49948;SDS011;35840;45.982;8.890;2023-08-17T00:36:30;5.38;;;4.35;;
49948;SDS011;35840;45.982;8.890;2023-08-17T00:38:56;4.57;;;3.75;;
49948;SDS011;35840;45.982;8.890;2023-08-17T00:41:23;4.30;;;3.90;;
49948;SDS011;35840;45.982;8.890;2023-08-17T00:43:50;4.47;;;4.00;;
49948;SDS011;35840;45.982;8.890;2023-08-17T00:46:17;4.43;;;4.05;;
49948;SDS011;35840;45.982;8.890;2023-08-17T00:48:46;5.13;;;4.72;;
49948;SDS011;35840;45.982;8.890;2023-08-17T00:51:13;5.22;;;4.13;;
49948;SDS011;35840;45.982;8.890;2023-08-17T00:53:40;4.43;;;3.78;;
49948;SDS011;35840;45.982;8.890;2023-08-17T00:56:08;5.25;;;3.42;;
49948;SDS011;35840;45.982;8.890;2023-08-17T00:58:35;4.32;;;2.97;;
49948;SDS011;35840;45.982;8.890;2023-08-17T01:01:02;4.25;;;3.85;;
49948;SDS011;35840;45.982;8.890;2023-08-17T01:03:29;4.45;;;3.70;;
49948;SDS011;35840;45.982;8.890;2023-08-17T01:05:56;3.65;;;3.35;;
49948;SDS011;35840;45.982;8.890;2023-08-17T01:08:24;4.18;;;3.10;;
49948;SDS011;35840;45.982;8.890;2023-08-17T01:11:10;3.85;;;2.92;;
49948;SDS011;35840;45.982;8.890;2023-08-17T01:16:41;5.18;;;3.92;;
49948;SDS011;35840;45.982;8.890;2023-08-17T01:19:16;10.10;;;5.88;;
49948;SDS011;35840;45.982;8.890;2023-08-17T01:21:51;4.95;;;4.47;;
49948;SDS011;35840;45.982;8.890;2023-08-17T01:24:34;4.75;;;4.25;;
49948;SDS011;35840;45.982;8.890;2023-08-17T01:27:01;4.40;;;4.00;;
49948;SDS011;35840;45.982;8.890;2023-08-17T01:29:28;6.07;;;3.53;;
49948;SDS011;35840;45.982;8.890;2023-08-17T01:32:07;4.32;;;3.80;;
49948;SDS011;35840;45.982;8.890;2023-08-17T01:34:44;4.25;;;3.67;;
49948;SDS011;35840;45.982;8.890;2023-08-17T01:37:18;4.97;;;3.97;;
49948;SDS011;35840;45.982;8.890;2023-08-17T01:39:49;4.60;;;3.88;;
49948;SDS011;35840;45.982;8.890;2023-08-17T01:42:20;5.97;;;4.43;;
49948;SDS011;35840;45.982;8.890;2023-08-17T01:44:48;11.25;;;7.40;;
49948;SDS011;35840;45.982;8.890;2023-08-17T01:47:16;7.43;;;6.72;;
49948;SDS011;35840;45.982;8.890;2023-08-17T01:49:47;6.28;;;5.68;;
49948;SDS011;35840;45.982;8.890;2023-08-17T01:52:15;5.45;;;4.60;;
49948;SDS011;35840;45.982;8.890;2023-08-17T01:54:42;4.05;;;3.65;;
49948;SDS011;35840;45.982;8.890;2023-08-17T01:57:08;6.95;;;3.88;;
49948;SDS011;35840;45.982;8.890;2023-08-17T01:59:35;4.03;;;3.13;;
49948;SDS011;35840;45.982;8.890;2023-08-17T02:02:02;3.80;;;3.40;;
49948;SDS011;35840;45.982;8.890;2023-08-17T02:04:29;4.75;;;3.35;;
49948;SDS011;35840;45.982;8.890;2023-08-17T02:06:56;5.88;;;3.47;;
49948;SDS011;35840;45.982;8.890;2023-08-17T02:09:23;4.53;;;3.67;;
49948;SDS011;35840;45.982;8.890;2023-08-17T02:11:51;4.38;;;3.92;;
49948;SDS011;35840;45.982;8.890;2023-08-17T02:14:18;4.47;;;3.72;;
49948;SDS011;35840;45.982;8.890;2023-08-17T02:16:45;4.90;;;4.35;;
49948;SDS011;35840;45.982;8.890;2023-08-17T02:19:11;5.18;;;4.30;;
49948;SDS011;35840;45.982;8.890;2023-08-17T02:21:40;4.47;;;3.80;;
49948;SDS011;35840;45.982;8.890;2023-08-17T02:24:07;4.30;;;3.90;;
49948;SDS011;35840;45.982;8.890;2023-08-17T02:26:34;8.00;;;4.55;;
49948;SDS011;35840;45.982;8.890;2023-08-17T02:29:01;5.70;;;4.25;;
49948;SDS011;35840;45.982;8.890;2023-08-17T02:31:27;5.20;;;4.30;;
49948;SDS011;35840;45.982;8.890;2023-08-17T02:33:56;5.55;;;4.15;;
49948;SDS011;35840;45.982;8.890;2023-08-17T02:36:27;5.47;;;4.03;;
49948;SDS011;35840;45.982;8.890;2023-08-17T02:38:54;3.92;;;3.53;;
49948;SDS011;35840;45.982;8.890;2023-08-17T02:41:21;6.82;;;4.97;;
49948;SDS011;35840;45.982;8.890;2023-08-17T02:43:47;6.53;;;4.20;;
49948;SDS011;35840;45.982;8.890;2023-08-17T02:46:14;5.95;;;4.22;;
49948;SDS011;35840;45.982;8.890;2023-08-17T02:48:41;4.45;;;4.05;;
49948;SDS011;35840;45.982;8.890;2023-08-17T02:51:08;6.40;;;3.85;;
49948;SDS011;35840;45.982;8.890;2023-08-17T02:53:35;6.35;;;3.88;;
49948;SDS011;35840;45.982;8.890;2023-08-17T02:56:02;4.53;;;4.13;;
49948;SDS011;35840;45.982;8.890;2023-08-17T02:58:29;5.45;;;3.40;;
49948;SDS011;35840;45.982;8.890;2023-08-17T03:00:56;7.45;;;3.55;;
49948;SDS011;35840;45.982;8.890;2023-08-17T03:03:22;5.10;;;3.90;;
49948;SDS011;35840;45.982;8.890;2023-08-17T03:05:49;3.60;;;3.22;;
49948;SDS011;35840;45.982;8.890;2023-08-17T03:08:16;3.33;;;3.03;;
49948;SDS011;35840;45.982;8.890;2023-08-17T03:10:43;4.30;;;3.33;;
49948;SDS011;35840;45.982;8.890;2023-08-17T03:13:09;4.15;;;3.70;;
49948;SDS011;35840;45.982;8.890;2023-08-17T03:15:36;3.67;;;3.30;;
49948;SDS011;35840;45.982;8.890;2023-08-17T03:18:06;5.25;;;3.70;;
49948;SDS011;35840;45.982;8.890;2023-08-17T03:20:33;3.45;;;3.15;;
49948;SDS011;35840;45.982;8.890;2023-08-17T03:23:00;4.40;;;3.63;;
49948;SDS011;35840;45.982;8.890;2023-08-17T03:25:27;4.65;;;3.95;;
49948;SDS011;35840;45.982;8.890;2023-08-17T03:27:54;4.45;;;3.50;;
49948;SDS011;35840;45.982;8.890;2023-08-17T03:30:20;4.80;;;3.50;;
49948;SDS011;35840;45.982;8.890;2023-08-17T03:32:47;5.25;;;3.33;;
49948;SDS011;35840;45.982;8.890;2023-08-17T03:35:15;6.18;;;3.80;;
49948;SDS011;35840;45.982;8.890;2023-08-17T03:37:42;7.00;;;3.65;;
49948;SDS011;35840;45.982;8.890;2023-08-17T03:40:10;9.07;;;3.70;;
49948;SDS011;35840;45.982;8.890;2023-08-17T03:42:36;9.60;;;3.75;;
49948;SDS011;35840;45.982;8.890;2023-08-17T03:45:03;5.10;;;3.42;;
49948;SDS011;35840;45.982;8.890;2023-08-17T03:47:32;4.30;;;3.70;;
49948;SDS011;35840;45.982;8.890;2023-08-17T03:50:00;4.80;;;4.35;;
49948;SDS011;35840;45.982;8.890;2023-08-17T03:52:26;8.23;;;3.85;;
49948;SDS011;35840;45.982;8.890;2023-08-17T03:54:53;5.15;;;3.70;;
49948;SDS011;35840;45.982;8.890;2023-08-17T03:57:20;4.82;;;3.00;;
49948;SDS011;35840;45.982;8.890;2023-08-17T03:59:47;5.47;;;4.43;;
49948;SDS011;35840;45.982;8.890;2023-08-17T04:02:13;4.50;;;3.60;;
49948;SDS011;35840;45.982;8.890;2023-08-17T04:04:40;5.00;;;3.95;;
49948;SDS011;35840;45.982;8.890;2023-08-17T04:07:07;6.78;;;4.07;;
49948;SDS011;35840;45.982;8.890;2023-08-17T04:09:34;8.45;;;4.35;;
49948;SDS011;35840;45.982;8.890;2023-08-17T04:12:01;6.25;;;4.07;;
49948;SDS011;35840;45.982;8.890;2023-08-17T04:14:35;6.97;;;4.45;;
49948;SDS011;35840;45.982;8.890;2023-08-17T04:17:02;6.30;;;4.13;;
49948;SDS011;35840;45.982;8.890;2023-08-17T04:19:30;7.18;;;3.90;;
49948;SDS011;35840;45.982;8.890;2023-08-17T04:21:57;7.10;;;4.75;;
49948;SDS011;35840;45.982;8.890;2023-08-17T04:24:24;8.27;;;4.57;;
49948;SDS011;35840;45.982;8.890;2023-08-17T04:26:51;5.25;;;4.40;;
49948;SDS011;35840;45.982;8.890;2023-08-17T04:29:18;5.70;;;4.38;;
49948;SDS011;35840;45.982;8.890;2023-08-17T04:31:45;5.38;;;4.85;;
49948;SDS011;35840;45.982;8.890;2023-08-17T04:34:12;5.68;;;5.05;;
49948;SDS011;35840;45.982;8.890;2023-08-17T04:36:39;5.68;;;4.85;;
49948;SDS011;35840;45.982;8.890;2023-08-17T04:39:06;7.18;;;4.82;;
49948;SDS011;35840;45.982;8.890;2023-08-17T04:41:32;5.10;;;4.57;;
49948;SDS011;35840;45.982;8.890;2023-08-17T04:44:01;5.72;;;4.75;;
49948;SDS011;35840;45.982;8.890;2023-08-17T04:46:29;6.03;;;4.70;;
49948;SDS011;35840;45.982;8.890;2023-08-17T04:48:56;6.68;;;5.28;;
49948;SDS011;35840;45.982;8.890;2023-08-17T04:51:23;6.70;;;5.22;;
49948;SDS011;35840;45.982;8.890;2023-08-17T04:53:51;5.38;;;4.80;;
49948;SDS011;35840;45.982;8.890;2023-08-17T04:56:18;6.35;;;4.65;;
49948;SDS011;35840;45.982;8.890;2023-08-17T04:58:45;6.25;;;4.28;;
49948;SDS011;35840;45.982;8.890;2023-08-17T05:01:13;6.18;;;5.10;;
49948;SDS011;35840;45.982;8.890;2023-08-17T05:03:40;5.32;;;4.82;;
49948;SDS011;35840;45.982;8.890;2023-08-17T05:06:07;7.47;;;4.57;;
49948;SDS011;35840;45.982;8.890;2023-08-17T05:08:35;4.88;;;4.45;;
49948;SDS011;35840;45.982;8.890;2023-08-17T05:11:01;6.15;;;5.15;;
49948;SDS011;35840;45.982;8.890;2023-08-17T05:13:28;5.78;;;4.65;;
49948;SDS011;35840;45.982;8.890;2023-08-17T05:16:01;7.60;;;4.70;;
49948;SDS011;35840;45.982;8.890;2023-08-17T05:18:28;4.53;;;4.13;;
49948;SDS011;35840;45.982;8.890;2023-08-17T05:20:56;4.38;;;3.97;;
49948;SDS011;35840;45.982;8.890;2023-08-17T05:23:22;5.32;;;4.75;;
49948;SDS011;35840;45.982;8.890;2023-08-17T05:25:49;5.05;;;4.45;;
49948;SDS011;35840;45.982;8.890;2023-08-17T05:28:16;5.53;;;4.88;;
49948;SDS011;35840;45.982;8.890;2023-08-17T05:30:43;5.65;;;4.38;;
49948;SDS011;35840;45.982;8.890;2023-08-17T05:33:10;7.53;;;4.88;;
49948;SDS011;35840;45.982;8.890;2023-08-17T05:35:38;4.88;;;3.85;;
49948;SDS011;35840;45.982;8.890;2023-08-17T05:38:04;6.88;;;4.15;;
49948;SDS011;35840;45.982;8.890;2023-08-17T05:40:31;4.78;;;4.38;;
49948;SDS011;35840;45.982;8.890;2023-08-17T05:42:58;4.43;;;4.10;;
49948;SDS011;35840;45.982;8.890;2023-08-17T05:45:25;4.88;;;4.32;;
49948;SDS011;35840;45.982;8.890;2023-08-17T05:47:52;6.03;;;4.65;;
49948;SDS011;35840;45.982;8.890;2023-08-17T05:50:19;6.10;;;3.72;;
49948;SDS011;35840;45.982;8.890;2023-08-17T05:52:46;5.30;;;4.60;;
49948;SDS011;35840;45.982;8.890;2023-08-17T05:55:13;5.25;;;4.38;;
49948;SDS011;35840;45.982;8.890;2023-08-17T05:57:40;6.35;;;4.20;;
49948;SDS011;35840;45.982;8.890;2023-08-17T06:00:06;5.88;;;4.07;;
49948;SDS011;35840;45.982;8.890;2023-08-17T06:02:41;4.60;;;4.20;;
49948;SDS011;35840;45.982;8.890;2023-08-17T06:05:08;4.20;;;3.90;;
49948;SDS011;35840;45.982;8.890;2023-08-17T06:07:35;6.65;;;4.63;;
49948;SDS011;35840;45.982;8.890;2023-08-17T06:10:03;7.25;;;4.97;;
49948;SDS011;35840;45.982;8.890;2023-08-17T06:12:31;7.72;;;4.57;;
49948;SDS011;35840;45.982;8.890;2023-08-17T06:14:57;6.57;;;4.10;;
49948;SDS011;35840;45.982;8.890;2023-08-17T06:17:24;5.60;;;4.78;;
49948;SDS011;35840;45.982;8.890;2023-08-17T06:19:51;7.65;;;4.93;;
49948;SDS011;35840;45.982;8.890;2023-08-17T06:22:18;4.88;;;4.35;;
49948;SDS011;35840;45.982;8.890;2023-08-17T06:24:45;4.13;;;3.83;;
49948;SDS011;35840;45.982;8.890;2023-08-17T06:27:13;5.43;;;4.05;;
49948;SDS011;35840;45.982;8.890;2023-08-17T06:29:40;5.25;;;4.20;;
49948;SDS011;35840;45.982;8.890;2023-08-17T06:32:07;5.50;;;4.05;;
49948;SDS011;35840;45.982;8.890;2023-08-17T06:34:34;4.47;;;4.07;;
49948;SDS011;35840;45.982;8.890;2023-08-17T06:37:03;6.55;;;4.30;;
49948;SDS011;35840;45.982;8.890;2023-08-17T06:39:30;4.95;;;4.47;;
49948;SDS011;35840;45.982;8.890;2023-08-17T06:41:57;7.75;;;4.68;;
49948;SDS011;35840;45.982;8.890;2023-08-17T06:44:24;4.93;;;4.45;;
49948;SDS011;35840;45.982;8.890;2023-08-17T06:46:50;4.85;;;4.35;;
49948;SDS011;35840;45.982;8.890;2023-08-17T06:49:17;5.68;;;4.35;;
49948;SDS011;35840;45.982;8.890;2023-08-17T06:51:44;5.18;;;4.38;;
49948;SDS011;35840;45.982;8.890;2023-08-17T06:54:11;7.32;;;4.97;;
49948;SDS011;35840;45.982;8.890;2023-08-17T06:56:37;8.38;;;4.70;;
49948;SDS011;35840;45.982;8.890;2023-08-17T06:59:04;5.78;;;4.38;;
49948;SDS011;35840;45.982;8.890;2023-08-17T07:01:31;3.80;;;3.50;;
49948;SDS011;35840;45.982;8.890;2023-08-17T07:03:58;4.95;;;3.72;;
49948;SDS011;35840;45.982;8.890;2023-08-17T07:06:24;6.30;;;3.33;;
49948;SDS011;35840;45.982;8.890;2023-08-17T07:08:51;3.60;;;3.30;;
49948;SDS011;35840;45.982;8.890;2023-08-17T07:11:19;4.38;;;2.80;;
49948;SDS011;35840;45.982;8.890;2023-08-17T07:13:46;3.90;;;3.50;;
49948;SDS011;35840;45.982;8.890;2023-08-17T07:16:13;3.65;;;3.20;;
49948;SDS011;35840;45.982;8.890;2023-08-17T07:18:39;3.75;;;3.40;;
49948;SDS011;35840;45.982;8.890;2023-08-17T07:21:06;4.47;;;3.13;;
49948;SDS011;35840;45.982;8.890;2023-08-17T07:23:33;3.90;;;3.55;;
49948;SDS011;35840;45.982;8.890;2023-08-17T07:26:00;4.55;;;3.55;;
49948;SDS011;35840;45.982;8.890;2023-08-17T07:28:27;4.90;;;4.18;;
49948;SDS011;35840;45.982;8.890;2023-08-17T07:30:53;4.25;;;3.20;;
49948;SDS011;35840;45.982;8.890;2023-08-17T07:33:20;4.05;;;3.65;;
49948;SDS011;35840;45.982;8.890;2023-08-17T07:35:47;4.45;;;3.38;;
49948;SDS011;35840;45.982;8.890;2023-08-17T07:38:13;3.67;;;3.38;;
49948;SDS011;35840;45.982;8.890;2023-08-17T07:40:40;5.40;;;3.15;;
49948;SDS011;35840;45.982;8.890;2023-08-17T07:43:09;4.43;;;4.03;;
49948;SDS011;35840;45.982;8.890;2023-08-17T07:45:35;4.28;;;3.75;;
49948;SDS011;35840;45.982;8.890;2023-08-17T07:48:02;4.82;;;4.40;;
49948;SDS011;35840;45.982;8.890;2023-08-17T07:50:29;5.43;;;4.53;;
49948;SDS011;35840;45.982;8.890;2023-08-17T07:52:56;4.55;;;4.13;;
49948;SDS011;35840;45.982;8.890;2023-08-17T07:55:23;7.60;;;4.32;;
49948;SDS011;35840;45.982;8.890;2023-08-17T07:57:50;5.22;;;4.22;;
49948;SDS011;35840;45.982;8.890;2023-08-17T08:00:17;4.47;;;4.07;;
49948;SDS011;35840;45.982;8.890;2023-08-17T08:02:44;4.50;;;4.10;;
49948;SDS011;35840;45.982;8.890;2023-08-17T08:05:10;8.38;;;5.18;;
49948;SDS011;35840;45.982;8.890;2023-08-17T08:07:39;5.35;;;4.35;;
49948;SDS011;35840;45.982;8.890;2023-08-17T08:10:06;6.40;;;3.47;;
49948;SDS011;35840;45.982;8.890;2023-08-17T08:12:33;7.05;;;4.43;;
49948;SDS011;35840;45.982;8.890;2023-08-17T08:15:00;4.95;;;4.45;;
49948;SDS011;35840;45.982;8.890;2023-08-17T08:17:27;4.80;;;4.28;;
49948;SDS011;35840;45.982;8.890;2023-08-17T08:19:55;5.45;;;4.20;;
49948;SDS011;35840;45.982;8.890;2023-08-17T08:22:22;12.63;;;6.40;;
49948;SDS011;35840;45.982;8.890;2023-08-17T08:24:48;9.20;;;5.28;;
49948;SDS011;35840;45.982;8.890;2023-08-17T08:27:15;4.50;;;4.10;;
49948;SDS011;35840;45.982;8.890;2023-08-17T08:29:42;8.30;;;4.60;;
49948;SDS011;35840;45.982;8.890;2023-08-17T08:32:09;11.40;;;4.93;;
49948;SDS011;35840;45.982;8.890;2023-08-17T08:34:35;4.63;;;3.47;;
49948;SDS011;35840;45.982;8.890;2023-08-17T08:37:02;3.45;;;3.15;;
49948;SDS011;35840;45.982;8.890;2023-08-17T08:39:29;10.05;;;4.18;;
49948;SDS011;35840;45.982;8.890;2023-08-17T08:41:56;3.53;;;3.20;;
49948;SDS011;35840;45.982;8.890;2023-08-17T08:44:23;12.82;;;3.28;;
49948;SDS011;35840;45.982;8.890;2023-08-17T08:46:50;6.07;;;3.25;;
49948;SDS011;35840;45.982;8.890;2023-08-17T08:49:19;4.57;;;3.45;;
49948;SDS011;35840;45.982;8.890;2023-08-17T08:51:49;3.42;;;3.13;;
49948;SDS011;35840;45.982;8.890;2023-08-17T08:54:20;4.35;;;3.50;;
49948;SDS011;35840;45.982;8.890;2023-08-17T08:56:54;4.97;;;3.72;;
49948;SDS011;35840;45.982;8.890;2023-08-17T08:59:27;5.40;;;4.43;;
49948;SDS011;35840;45.982;8.890;2023-08-17T09:01:55;8.32;;;3.75;;
49948;SDS011;35840;45.982;8.890;2023-08-17T09:04:24;3.53;;;3.22;;
49948;SDS011;35840;45.982;8.890;2023-08-17T09:06:52;10.30;;;4.85;;
49948;SDS011;35840;45.982;8.890;2023-08-17T09:09:20;2.90;;;2.65;;
49948;SDS011;35840;45.982;8.890;2023-08-17T09:11:54;3.85;;;3.40;;
49948;SDS011;35840;45.982;8.890;2023-08-17T09:14:20;4.60;;;3.10;;
49948;SDS011;35840;45.982;8.890;2023-08-17T09:16:47;3.47;;;3.03;;
49948;SDS011;35840;45.982;8.890;2023-08-17T09:19:14;7.85;;;3.58;;
49948;SDS011;35840;45.982;8.890;2023-08-17T09:21:41;4.03;;;2.85;;
49948;SDS011;35840;45.982;8.890;2023-08-17T09:24:08;3.38;;;2.58;;
49948;SDS011;35840;45.982;8.890;2023-08-17T09:26:35;3.28;;;2.72;;
49948;SDS011;35840;45.982;8.890;2023-08-17T09:29:15;3.15;;;2.72;;
49948;SDS011;35840;45.982;8.890;2023-08-17T09:31:44;5.60;;;3.28;;
49948;SDS011;35840;45.982;8.890;2023-08-17T09:34:12;3.80;;;2.45;;
49948;SDS011;35840;45.982;8.890;2023-08-17T09:36:41;3.67;;;2.83;;
49948;SDS011;35840;45.982;8.890;2023-08-17T09:39:08;4.85;;;2.67;;
49948;SDS011;35840;45.982;8.890;2023-08-17T09:41:40;3.65;;;3.25;;
49948;SDS011;35840;45.982;8.890;2023-08-17T09:44:09;4.53;;;3.53;;
49948;SDS011;35840;45.982;8.890;2023-08-17T09:46:42;3.33;;;3.03;;
49948;SDS011;35840;45.982;8.890;2023-08-17T09:49:11;6.68;;;3.40;;
49948;SDS011;35840;45.982;8.890;2023-08-17T09:51:43;4.50;;;2.90;;
49948;SDS011;35840;45.982;8.890;2023-08-17T09:54:22;3.03;;;2.83;;
49948;SDS011;35840;45.982;8.890;2023-08-17T09:56:55;4.93;;;2.70;;
49948;SDS011;35840;45.982;8.890;2023-08-17T09:59:25;2.80;;;2.60;;
49948;SDS011;35840;45.982;8.890;2023-08-17T10:01:55;2.70;;;2.50;;
49948;SDS011;35840;45.982;8.890;2023-08-17T10:04:24;3.08;;;2.88;;
49948;SDS011;35840;45.982;8.890;2023-08-17T10:07:00;3.88;;;3.05;;
49948;SDS011;35840;45.982;8.890;2023-08-17T10:12:06;6.07;;;3.13;;
49948;SDS011;35840;45.982;8.890;2023-08-17T10:14:39;6.03;;;3.30;;
49948;SDS011;35840;45.982;8.890;2023-08-17T10:25:00;5.05;;;3.63;;
49948;SDS011;35840;45.982;8.890;2023-08-17T10:27:27;4.55;;;3.05;;
49948;SDS011;35840;45.982;8.890;2023-08-17T10:29:55;3.63;;;2.70;;
49948;SDS011;35840;45.982;8.890;2023-08-17T10:32:23;3.65;;;2.85;;
49948;SDS011;35840;45.982;8.890;2023-08-17T10:34:51;3.80;;;3.25;;
49948;SDS011;35840;45.982;8.890;2023-08-17T10:37:19;4.50;;;3.40;;
49948;SDS011;35840;45.982;8.890;2023-08-17T10:39:47;4.05;;;3.20;;
49948;SDS011;35840;45.982;8.890;2023-08-17T10:42:15;4.43;;;3.25;;
49948;SDS011;35840;45.982;8.890;2023-08-17T10:44:57;3.58;;;2.70;;
49948;SDS011;35840;45.982;8.890;2023-08-17T10:47:25;3.00;;;2.70;;
49948;SDS011;35840;45.982;8.890;2023-08-17T10:50:04;5.68;;;3.53;;
49948;SDS011;35840;45.982;8.890;2023-08-17T10:52:34;3.00;;;2.40;;
49948;SDS011;35840;45.982;8.890;2023-08-17T10:55:06;3.33;;;3.05;;
49948;SDS011;35840;45.982;8.890;2023-08-17T10:57:37;3.95;;;3.00;;
49948;SDS011;35840;45.982;8.890;2023-08-17T11:03:00;3.72;;;3.17;;
49948;SDS011;35840;45.982;8.890;2023-08-17T11:08:31;3.20;;;2.90;;
49948;SDS011;35840;45.982;8.890;2023-08-17T11:13:29;4.95;;;3.58;;
49948;SDS011;35840;45.982;8.890;2023-08-17T11:15:58;3.78;;;3.38;;
49948;SDS011;35840;45.982;8.890;2023-08-17T11:18:30;6.88;;;3.80;;
49948;SDS011;35840;45.982;8.890;2023-08-17T11:21:00;11.82;;;3.30;;
49948;SDS011;35840;45.982;8.890;2023-08-17T11:23:30;4.25;;;3.58;;
49948;SDS011;35840;45.982;8.890;2023-08-17T11:25:58;3.90;;;3.60;;
49948;SDS011;35840;45.982;8.890;2023-08-17T11:28:25;6.07;;;3.55;;
49948;SDS011;35840;45.982;8.890;2023-08-17T11:30:59;3.90;;;3.50;;
49948;SDS011;35840;45.982;8.890;2023-08-17T11:33:27;5.78;;;3.20;;
49948;SDS011;35840;45.982;8.890;2023-08-17T11:35:59;3.88;;;3.42;;
49948;SDS011;35840;45.982;8.890;2023-08-17T11:38:30;7.03;;;3.55;;
49948;SDS011;35840;45.982;8.890;2023-08-17T11:40:59;4.78;;;3.25;;
49948;SDS011;35840;45.982;8.890;2023-08-17T11:43:27;4.65;;;2.88;;
49948;SDS011;35840;45.982;8.890;2023-08-17T11:45:55;4.63;;;3.92;;
49948;SDS011;35840;45.982;8.890;2023-08-17T11:48:23;4.53;;;3.25;;
49948;SDS011;35840;45.982;8.890;2023-08-17T11:50:51;4.63;;;4.18;;
49948;SDS011;35840;45.982;8.890;2023-08-17T11:53:18;5.28;;;4.22;;
49948;SDS011;35840;45.982;8.890;2023-08-17T11:55:45;4.22;;;3.78;;
49948;SDS011;35840;45.982;8.890;2023-08-17T11:58:12;6.05;;;3.60;;
49948;SDS011;35840;45.982;8.890;2023-08-17T12:00:39;4.20;;;3.60;;
49948;SDS011;35840;45.982;8.890;2023-08-17T12:03:08;3.90;;;3.47;;
49948;SDS011;35840;45.982;8.890;2023-08-17T12:05:40;3.58;;;3.28;;
49948;SDS011;35840;45.982;8.890;2023-08-17T12:08:07;5.05;;;3.75;;
49948;SDS011;35840;45.982;8.890;2023-08-17T12:10:36;5.47;;;4.00;;
49948;SDS011;35840;45.982;8.890;2023-08-17T12:13:03;7.35;;;3.88;;
49948;SDS011;35840;45.982;8.890;2023-08-17T12:15:31;6.78;;;4.30;;
49948;SDS011;35840;45.982;8.890;2023-08-17T12:18:00;4.53;;;4.13;;
49948;SDS011;35840;45.982;8.890;2023-08-17T12:20:29;7.43;;;3.55;;
49948;SDS011;35840;45.982;8.890;2023-08-17T12:22:57;8.02;;;4.28;;
49948;SDS011;35840;45.982;8.890;2023-08-17T12:25:27;5.35;;;4.35;;
49948;SDS011;35840;45.982;8.890;2023-08-17T12:27:54;6.45;;;4.72;;
49948;SDS011;35840;45.982;8.890;2023-08-17T12:30:32;4.05;;;3.33;;
49948;SDS011;35840;45.982;8.890;2023-08-17T12:33:01;4.80;;;3.70;;
49948;SDS011;35840;45.982;8.890;2023-08-17T12:35:29;6.07;;;3.85;;
49948;SDS011;35840;45.982;8.890;2023-08-17T12:37:57;7.20;;;4.70;;
49948;SDS011;35840;45.982;8.890;2023-08-17T12:40:24;4.60;;;3.55;;
49948;SDS011;35840;45.982;8.890;2023-08-17T12:42:51;4.55;;;4.07;;
49948;SDS011;35840;45.982;8.890;2023-08-17T12:45:18;7.20;;;4.75;;
49948;SDS011;35840;45.982;8.890;2023-08-17T12:47:45;4.15;;;3.78;;
49948;SDS011;35840;45.982;8.890;2023-08-17T12:50:12;8.60;;;4.55;;
49948;SDS011;35840;45.982;8.890;2023-08-17T12:52:39;5.80;;;4.22;;
49948;SDS011;35840;45.982;8.890;2023-08-17T12:55:05;4.10;;;3.72;;
49948;SDS011;35840;45.982;8.890;2023-08-17T12:57:33;4.50;;;4.05;;
49948;SDS011;35840;45.982;8.890;2023-08-17T13:00:01;4.07;;;3.78;;
49948;SDS011;35840;45.982;8.890;2023-08-17T13:02:28;5.68;;;4.60;;
49948;SDS011;35840;45.982;8.890;2023-08-17T13:04:55;4.25;;;3.85;;
49948;SDS011;35840;45.982;8.890;2023-08-17T13:07:22;4.95;;;3.90;;
49948;SDS011;35840;45.982;8.890;2023-08-17T13:09:49;5.20;;;4.53;;
49948;SDS011;35840;45.982;8.890;2023-08-17T13:12:16;8.02;;;5.47;;
49948;SDS011;35840;45.982;8.890;2023-08-17T13:14:42;7.25;;;4.82;;
49948;SDS011;35840;45.982;8.890;2023-08-17T13:17:09;10.15;;;5.45;;
49948;SDS011;35840;45.982;8.890;2023-08-17T13:19:36;10.00;;;6.97;;
49948;SDS011;35840;45.982;8.890;2023-08-17T13:22:03;12.07;;;6.70;;
49948;SDS011;35840;45.982;8.890;2023-08-17T13:24:30;13.35;;;8.02;;
49948;SDS011;35840;45.982;8.890;2023-08-17T13:26:57;12.32;;;6.07;;
49948;SDS011;35840;45.982;8.890;2023-08-17T13:29:24;14.13;;;6.28;;
49948;SDS011;35840;45.982;8.890;2023-08-17T13:31:51;4.78;;;4.32;;
49948;SDS011;35840;45.982;8.890;2023-08-17T13:34:18;15.07;;;6.80;;
49948;SDS011;35840;45.982;8.890;2023-08-17T13:36:44;27.70;;;11.18;;
49948;SDS011;35840;45.982;8.890;2023-08-17T13:39:11;8.80;;;5.70;;
49948;SDS011;35840;45.982;8.890;2023-08-17T13:41:38;10.13;;;6.32;;
49948;SDS011;35840;45.982;8.890;2023-08-17T13:44:07;11.10;;;7.22;;
49948;SDS011;35840;45.982;8.890;2023-08-17T13:46:33;7.75;;;6.13;;
49948;SDS011;35840;45.982;8.890;2023-08-17T13:49:00;5.43;;;4.85;;
49948;SDS011;35840;45.982;8.890;2023-08-17T13:51:27;15.77;;;7.50;;
49948;SDS011;35840;45.982;8.890;2023-08-17T13:53:54;25.90;;;8.63;;
49948;SDS011;35840;45.982;8.890;2023-08-17T13:56:20;5.57;;;5.05;;
49948;SDS011;35840;45.982;8.890;2023-08-17T13:58:47;12.45;;;6.43;;
49948;SDS011;35840;45.982;8.890;2023-08-17T14:01:14;6.78;;;5.80;;
49948;SDS011;35840;45.982;8.890;2023-08-17T14:03:41;9.50;;;4.97;;
49948;SDS011;35840;45.982;8.890;2023-08-17T14:06:09;10.38;;;5.40;;
49948;SDS011;35840;45.982;8.890;2023-08-17T14:08:36;8.05;;;6.05;;
49948;SDS011;35840;45.982;8.890;2023-08-17T14:11:03;9.60;;;5.20;;
49948;SDS011;35840;45.982;8.890;2023-08-17T14:13:29;13.80;;;7.38;;
49948;SDS011;35840;45.982;8.890;2023-08-17T14:15:56;21.85;;;9.85;;
49948;SDS011;35840;45.982;8.890;2023-08-17T14:18:24;21.30;;;11.50;;
49948;SDS011;35840;45.982;8.890;2023-08-17T14:20:51;6.90;;;4.93;;
49948;SDS011;35840;45.982;8.890;2023-08-17T14:23:18;6.75;;;4.95;;
49948;SDS011;35840;45.982;8.890;2023-08-17T14:25:45;6.32;;;4.20;;
49948;SDS011;35840;45.982;8.890;2023-08-17T14:28:12;5.03;;;4.45;;
49948;SDS011;35840;45.982;8.890;2023-08-17T14:30:38;5.40;;;5.00;;
49948;SDS011;35840;45.982;8.890;2023-08-17T14:33:05;5.35;;;4.90;;
49948;SDS011;35840;45.982;8.890;2023-08-17T14:35:33;11.57;;;6.30;;
49948;SDS011;35840;45.982;8.890;2023-08-17T14:38:00;5.57;;;4.88;;
49948;SDS011;35840;45.982;8.890;2023-08-17T14:40:28;5.50;;;5.00;;
49948;SDS011;35840;45.982;8.890;2023-08-17T14:42:55;6.20;;;5.60;;
49948;SDS011;35840;45.982;8.890;2023-08-17T14:45:22;5.15;;;4.75;;
49948;SDS011;35840;45.982;8.890;2023-08-17T14:47:50;9.88;;;6.63;;
49948;SDS011;35840;45.982;8.890;2023-08-17T14:50:16;8.38;;;5.43;;
49948;SDS011;35840;45.982;8.890;2023-08-17T14:52:43;6.25;;;5.25;;
49948;SDS011;35840;45.982;8.890;2023-08-17T14:55:10;7.07;;;5.20;;
49948;SDS011;35840;45.982;8.890;2023-08-17T14:57:39;5.20;;;4.70;;
49948;SDS011;35840;45.982;8.890;2023-08-17T15:00:07;5.25;;;4.82;;
49948;SDS011;35840;45.982;8.890;2023-08-17T15:02:41;6.47;;;5.00;;
49948;SDS011;35840;45.982;8.890;2023-08-17T15:05:08;5.55;;;5.05;;
49948;SDS011;35840;45.982;8.890;2023-08-17T15:07:35;5.53;;;4.47;;
49948;SDS011;35840;45.982;8.890;2023-08-17T15:10:03;5.38;;;4.57;;
49948;SDS011;35840;45.982;8.890;2023-08-17T15:12:30;5.50;;;3.53;;